Time;durP1;ratioP1;P1;durP2;ratioP2;P2;SDS_P1;SDS_P2;PMS_P1;PMS_P2;Temp;Humidity;BMP_temperature;BMP_pressure;BME280_temperature;BME280_humidity;BME280_pressure;Samples;Min_cycle;Max_cycle;Signal;HPM_P1;HPM_P2
2022/08/25 00:00:25;;;;;;;4.57;3.40;;;;;;;;;;6296966;28;20060;-79
2022/08/25 00:03:27;;;;;;;4.60;3.40;;;;;;;;;;6297488;28;20045;-79
2022/08/25 00:06:37;;;;;;;3.58;3.28;;;;;;;;;;6294885;28;20044;-79
2022/08/25 00:09:39;;;;;;;;;;;;;;;;;;6288597;28;20522;-79
2022/08/25 00:12:40;;;;;;;4.07;3.25;;;;;;;;;;6289152;28;19983;-79
2022/08/25 00:15:42;;;;;;;5.43;3.08;;;;;;;;;;6289972;28;20064;-79
2022/08/25 00:18:47;;;;;;;7.45;3.63;;;;;;;;;;6291597;28;20048;-78
2022/08/25 00:21:48;;;;;;;4.90;3.50;;;;;;;;;;6292751;28;20061;-78
2022/08/25 00:24:50;;;;;;;4.10;3.50;;;;;;;;;;6285051;28;20040;-78
2022/08/25 00:27:51;;;;;;;4.38;3.67;;;;;;;;;;6289461;28;20135;-78
2022/08/25 00:30:53;;;;;;;3.92;3.53;;;;;;;;;;6287068;28;20093;-78
2022/08/25 00:33:55;;;;;;;3.42;3.10;;;;;;;;;;6281960;28;20071;-79
2022/08/25 00:36:56;;;;;;;7.85;3.25;;;;;;;;;;6282883;28;20060;-79
2022/08/25 00:39:58;;;;;;;3.80;3.50;;;;;;;;;;6285092;28;20075;-77
2022/08/25 00:42:59;;;;;;;3.83;3.30;;;;;;;;;;6281771;28;20041;-77
2022/08/25 00:46:01;;;;;;;5.68;3.50;;;;;;;;;;6299460;28;20060;-78
2022/08/25 00:49:18;;;;;;;4.88;3.83;;;;;;;;;;6283507;28;20105;-79
2022/08/25 00:52:34;;;;;;;4.53;3.60;;;;;;;;;;6279981;28;20048;-79
2022/08/25 00:55:39;;;;;;;6.57;3.67;;;;;;;;;;6281098;28;20198;-78
2022/08/25 00:58:41;;;;;;;3.85;3.55;;;;;;;;;;6259340;28;20127;-78
2022/08/25 01:01:43;;;;;;;5.05;3.53;;;;;;;;;;6285151;28;20049;-78
2022/08/25 01:04:45;;;;;;;5.22;3.17;;;;;;;;;;6286243;28;20094;-78
2022/08/25 01:07:51;;;;;;;4.70;3.60;;;;;;;;;;6277068;28;20078;-77
2022/08/25 01:11:03;;;;;;;4.20;3.80;;;;;;;;;;6285491;28;20036;-77
2022/08/25 01:14:05;;;;;;;4.28;3.55;;;;;;;;;;6303099;28;20159;-79
2022/08/25 01:17:08;;;;;;;5.25;4.25;;;;;;;;;;6289719;28;20070;-78
2022/08/25 01:20:10;;;;;;;4.40;3.92;;;;;;;;;;6282454;28;20047;-78
2022/08/25 01:23:11;;;;;;;4.97;3.58;;;;;;;;;;6280230;28;20558;-78
2022/08/25 01:26:21;;;;;;;4.85;4.07;;;;;;;;;;6283801;28;20482;-79
2022/08/25 01:29:31;;;;;;;5.50;3.90;;;;;;;;;;6282450;28;20045;-78
2022/08/25 01:32:33;;;;;;;5.40;3.70;;;;;;;;;;6283320;28;20123;-79
2022/08/25 01:35:35;;;;;;;7.85;4.07;;;;;;;;;;6289170;28;20052;-79
2022/08/25 01:38:37;;;;;;;5.93;4.00;;;;;;;;;;6291448;28;20502;-81
2022/08/25 01:41:38;;;;;;;4.25;3.80;;;;;;;;;;6290816;28;20142;-81
2022/08/25 01:44:43;;;;;;;6.22;4.10;;;;;;;;;;6301613;28;20671;-80
2022/08/25 01:47:45;;;;;;;5.13;4.15;;;;;;;;;;6291376;28;20533;-80
2022/08/25 01:50:47;;;;;;;5.28;3.97;;;;;;;;;;6299299;28;20102;-81
2022/08/25 01:53:49;;;;;;;4.75;4.10;;;;;;;;;;6297270;28;20092;-78
2022/08/25 01:56:51;;;;;;;5.80;4.05;;;;;;;;;;6288680;28;20051;-80
2022/08/25 01:59:53;;;;;;;5.03;4.10;;;;;;;;;;6289111;28;20036;-80
2022/08/25 02:02:54;;;;;;;5.57;4.50;;;;;;;;;;6297607;28;20056;-79
2022/08/25 02:06:00;;;;;;;6.63;4.43;;;;;;;;;;6296752;28;20052;-81
2022/08/25 02:09:08;;;;;;;6.50;4.22;;;;;;;;;;6290346;28;20451;-81
2022/08/25 02:12:10;;;;;;;7.80;4.70;;;;;;;;;;6289113;28;20068;-80
2022/08/25 02:15:11;;;;;;;6.72;4.53;;;;;;;;;;6289823;28;20127;-80
2022/08/25 02:18:13;;;;;;;7.55;4.93;;;;;;;;;;6294545;28;20174;-81
2022/08/25 02:21:15;;;;;;;9.48;5.38;;;;;;;;;;6297930;28;20108;-80
2022/08/25 02:24:17;;;;;;;7.78;6.07;;;;;;;;;;6289928;28;20118;-80
2022/08/25 02:27:19;;;;;;;7.63;5.20;;;;;;;;;;6291850;28;20063;-78
2022/08/25 02:30:20;;;;;;;6.85;5.40;;;;;;;;;;6293867;28;21422;-81
2022/08/25 02:33:22;;;;;;;5.63;5.00;;;;;;;;;;6290924;28;20119;-81
2022/08/25 02:36:24;;;;;;;5.53;4.95;;;;;;;;;;6293457;28;20119;-79
2022/08/25 02:39:25;;;;;;;7.55;5.55;;;;;;;;;;6285770;28;20495;-79
2022/08/25 02:42:28;;;;;;;5.93;4.63;;;;;;;;;;6284306;28;20048;-81
2022/08/25 02:45:29;;;;;;;8.40;5.28;;;;;;;;;;6293776;28;20108;-82
2022/08/25 02:48:31;;;;;;;7.95;5.63;;;;;;;;;;6295739;28;20048;-81
2022/08/25 02:51:33;;;;;;;6.32;5.30;;;;;;;;;;6288344;28;20461;-80
2022/08/25 02:54:35;;;;;;;6.45;5.35;;;;;;;;;;6292063;28;20068;-82
2022/08/25 02:57:37;;;;;;;7.53;5.10;;;;;;;;;;6288853;28;20049;-80
2022/08/25 03:00:38;;;;;;;8.27;5.45;;;;;;;;;;6284074;28;20086;-80
2022/08/25 03:03:43;;;;;;;7.18;5.43;;;;;;;;;;6277777;28;20165;-79
2022/08/25 03:06:45;;;;;;;6.78;5.47;;;;;;;;;;6267360;28;20056;-80
2022/08/25 03:09:47;;;;;;;7.57;5.72;;;;;;;;;;6290464;28;20072;-79
2022/08/25 03:12:48;;;;;;;6.90;5.35;;;;;;;;;;6279828;28;20106;-79
2022/08/25 03:15:51;;;;;;;6.50;5.65;;;;;;;;;;6276613;28;20147;-80
2022/08/25 03:18:52;;;;;;;8.43;4.60;;;;;;;;;;6279465;28;20068;-77
2022/08/25 03:21:55;;;;;;;5.60;4.88;;;;;;;;;;6279245;28;20036;-79
2022/08/25 03:26:52;;;;;;;5.85;5.25;;;;;;;;;;6297104;28;20040;-79
2022/08/25 03:28:25;;;;;;;6.60;4.70;;;;;;;;;;6281642;28;20059;-77
2022/08/25 03:31:33;;;;;;;7.47;5.13;;;;;;;;;;6285341;28;20049;-78
2022/08/25 03:34:34;;;;;;;5.97;4.90;;;;;;;;;;6282371;28;20128;-77
2022/08/25 03:37:36;;;;;;;5.55;4.97;;;;;;;;;;6280667;28;20123;-80
2022/08/25 03:40:38;;;;;;;5.75;5.15;;;;;;;;;;6285724;28;20064;-80
2022/08/25 03:43:40;;;;;;;6.30;5.70;;;;;;;;;;6288928;28;20155;-79
2022/08/25 03:46:44;;;;;;;7.50;5.43;;;;;;;;;;6289170;28;20120;-79
2022/08/25 03:49:46;;;;;;;6.82;5.35;;;;;;;;;;6291784;28;20045;-79
2022/08/25 03:52:54;;;;;;;6.60;5.65;;;;;;;;;;6289480;28;20093;-78
2022/08/25 03:55:56;;;;;;;8.93;5.78;;;;;;;;;;6284999;28;20118;-79
2022/08/25 03:58:58;;;;;;;6.32;5.65;;;;;;;;;;6284899;28;20170;-78
2022/08/25 04:02:01;;;;;;;9.02;5.70;;;;;;;;;;6286680;28;20135;-79
2022/08/25 04:05:03;;;;;;;7.40;5.40;;;;;;;;;;6291680;28;20083;-79
2022/08/25 04:08:05;;;;;;;6.68;5.28;;;;;;;;;;6283197;28;20060;-79
2022/08/25 04:11:17;;;;;;;7.63;5.93;;;;;;;;;;6283615;28;20216;-79
2022/08/25 04:14:20;;;;;;;8.07;5.75;;;;;;;;;;6286240;28;20148;-79
2022/08/25 04:17:21;;;;;;;7.00;5.53;;;;;;;;;;6282336;28;20144;-79
2022/08/25 04:20:23;;;;;;;6.50;5.28;;;;;;;;;;6281058;28;20044;-79
2022/08/25 04:23:24;;;;;;;6.68;5.10;;;;;;;;;;6280790;28;20131;-79
2022/08/25 04:26:33;;;;;;;8.70;5.25;;;;;;;;;;6283068;28;20036;-79
2022/08/25 04:29:35;;;;;;;7.97;5.80;;;;;;;;;;6281121;28;20119;-79
2022/08/25 04:32:36;;;;;;;7.78;5.65;;;;;;;;;;6278733;28;20136;-79
2022/08/25 04:35:40;;;;;;;6.22;5.50;;;;;;;;;;6285081;28;20136;-78
2022/08/25 04:38:43;;;;;;;6.82;5.63;;;;;;;;;;6279792;28;20050;-78
2022/08/25 04:41:46;;;;;;;6.72;5.72;;;;;;;;;;6276903;28;20155;-78
2022/08/25 04:44:48;;;;;;;7.88;5.70;;;;;;;;;;6286104;28;20120;-78
2022/08/25 04:47:50;;;;;;;7.13;5.50;;;;;;;;;;6288878;28;20772;-79
2022/08/25 04:50:55;;;;;;;6.78;5.82;;;;;;;;;;6282389;28;20040;-78
2022/08/25 04:54:00;;;;;;;7.35;5.60;;;;;;;;;;6273578;28;20048;-79
2022/08/25 04:57:01;;;;;;;8.25;6.22;;;;;;;;;;6278364;28;20490;-78
2022/08/25 05:00:04;;;;;;;8.13;5.57;;;;;;;;;;6281035;28;20045;-79
2022/08/25 05:03:07;;;;;;;;;;;;;;;;;;6275156;28;20051;-78
2022/08/25 05:06:08;;;;;;;7.43;5.72;;;;;;;;;;6278737;28;19964;-79
2022/08/25 05:09:16;;;;;;;9.88;6.45;;;;;;;;;;6273178;28;20058;-79
2022/08/25 05:12:22;;;;;;;9.27;6.30;;;;;;;;;;6283433;28;20045;-79
2022/08/25 05:18:47;;;;;;;8.95;6.53;;;;;;;;;;6278619;28;20052;-78
2022/08/25 05:21:49;;;;;;;8.20;6.70;;;;;;;;;;6282865;28;20791;-78
2022/08/25 05:24:51;;;;;;;9.80;6.90;;;;;;;;;;6278119;28;20048;-79
2022/08/25 05:27:53;;;;;;;9.77;7.82;;;;;;;;;;6276729;28;20100;-78
2022/08/25 05:31:01;;;;;;;10.55;7.20;;;;;;;;;;6278139;28;20052;-79
2022/08/25 05:34:07;;;;;;;8.32;6.32;;;;;;;;;;6281406;28;20048;-79
2022/08/25 05:37:08;;;;;;;10.27;6.93;;;;;;;;;;6296796;28;20037;-78
2022/08/25 05:40:12;;;;;;;9.98;7.30;;;;;;;;;;6288546;28;20051;-78
2022/08/25 05:43:14;;;;;;;10.65;7.72;;;;;;;;;;6298424;28;20049;-76
2022/08/25 05:46:18;;;;;;;12.38;7.07;;;;;;;;;;6286066;28;20199;-77
2022/08/25 05:49:19;;;;;;;7.47;6.30;;;;;;;;;;6282720;28;20049;-77
2022/08/25 05:52:21;;;;;;;7.80;6.65;;;;;;;;;;6287453;28;20136;-78
2022/08/25 05:55:23;;;;;;;10.82;6.20;;;;;;;;;;6288754;28;20094;-78
2022/08/25 05:58:27;;;;;;;7.32;6.63;;;;;;;;;;6291317;28;20137;-76
2022/08/25 06:04:49;;;;;;;9.73;6.68;;;;;;;;;;6296406;28;20049;-77
2022/08/25 06:07:51;;;;;;;8.32;6.40;;;;;;;;;;6293904;28;20040;-78
2022/08/25 06:10:53;;;;;;;7.75;6.43;;;;;;;;;;6287243;28;20064;-77
2022/08/25 06:13:56;;;;;;;11.02;7.68;;;;;;;;;;6304830;28;20037;-78
2022/08/25 06:16:59;;;;;;;8.07;6.80;;;;;;;;;;6287261;28;20554;-78
2022/08/25 06:20:02;;;;;;;10.35;7.00;;;;;;;;;;6280858;28;20134;-78
2022/08/25 06:23:03;;;;;;;9.23;6.38;;;;;;;;;;6283342;28;20043;-78
2022/08/25 06:26:08;;;;;;;12.95;6.47;;;;;;;;;;6278629;28;20410;-78
2022/08/25 06:29:13;;;;;;;10.70;6.65;;;;;;;;;;6280473;28;20048;-76
2022/08/25 06:32:15;;;;;;;14.15;6.32;;;;;;;;;;6282541;28;20045;-77
2022/08/25 06:35:18;;;;;;;31.42;7.75;;;;;;;;;;6283072;28;20127;-78
2022/08/25 06:38:20;;;;;;;16.95;6.88;;;;;;;;;;6283496;28;20088;-77
2022/08/25 06:41:22;;;;;;;15.80;6.67;;;;;;;;;;6265393;28;20105;-76
2022/08/25 06:44:23;;;;;;;18.45;6.68;;;;;;;;;;6264126;28;20473;-75
2022/08/25 06:47:25;;;;;;;12.05;5.82;;;;;;;;;;6262604;28;20135;-76
2022/08/25 06:50:27;;;;;;;17.20;6.93;;;;;;;;;;6267762;28;20040;-77
2022/08/25 06:53:29;;;;;;;17.10;6.60;;;;;;;;;;6270946;28;20132;-77
2022/08/25 06:56:31;;;;;;;24.80;6.72;;;;;;;;;;6276840;28;20066;-76
2022/08/25 06:59:34;;;;;;;19.55;7.47;;;;;;;;;;6274927;28;20487;-76
2022/08/25 07:02:37;;;;;;;23.30;7.47;;;;;;;;;;6269432;28;20132;-77
2022/08/25 07:05:39;;;;;;;18.40;7.10;;;;;;;;;;6280586;28;20303;-77
2022/08/25 07:08:45;;;;;;;19.05;7.25;;;;;;;;;;6275710;28;20049;-78
2022/08/25 07:11:47;;;;;;;21.35;7.70;;;;;;;;;;6283150;28;20125;-75
2022/08/25 07:14:49;;;;;;;20.23;7.70;;;;;;;;;;6274373;28;20044;-76
2022/08/25 07:18:11;;;;;;;14.27;7.18;;;;;;;;;;6270066;28;20830;-77
2022/08/25 07:21:13;;;;;;;16.57;7.63;;;;;;;;;;6282773;28;20082;-77
2022/08/25 07:24:15;;;;;;;14.05;6.63;;;;;;;;;;6288694;28;20053;-76
2022/08/25 07:27:17;;;;;;;15.25;6.43;;;;;;;;;;6288894;28;20068;-77
2022/08/25 07:30:19;;;;;;;14.70;6.75;;;;;;;;;;6284643;28;20053;-77
2022/08/25 07:33:21;;;;;;;10.75;6.65;;;;;;;;;;6284511;28;20063;-77
2022/08/25 07:36:24;;;;;;;11.07;6.32;;;;;;;;;;6277214;28;20103;-76
2022/08/25 07:39:27;;;;;;;9.80;6.90;;;;;;;;;;6269581;28;20044;-77
2022/08/25 07:42:30;;;;;;;8.90;6.85;;;;;;;;;;6257690;28;20045;-75
2022/08/25 07:45:34;;;;;;;7.70;6.57;;;;;;;;;;6271229;28;20056;-76
2022/08/25 07:48:36;;;;;;;8.40;6.38;;;;;;;;;;6283586;28;20053;-75
2022/08/25 07:51:39;;;;;;;;;;;;;;;;;;6270935;28;20601;-78
2022/08/25 07:54:40;;;;;;;11.63;6.85;;;;;;;;;;6281024;28;20438;-78
2022/08/25 07:57:42;;;;;;;10.35;6.97;;;;;;;;;;6275101;28;20072;-75
2022/08/25 08:00:47;;;;;;;10.00;7.00;;;;;;;;;;6271153;28;20041;-78
2022/08/25 08:03:51;;;;;;;7.40;6.38;;;;;;;;;;6267005;28;20037;-75
2022/08/25 08:06:53;;;;;;;;;;;;;;;;;;6266507;28;20384;-77
2022/08/25 08:09:55;;;;;;;10.82;6.78;;;;;;;;;;6270575;28;19957;-78
2022/08/25 08:13:16;;;;;;;11.18;6.70;;;;;;;;;;6295413;28;20229;-77
2022/08/25 08:16:21;;;;;;;7.03;6.32;;;;;;;;;;6263643;28;20037;-78
2022/08/25 08:19:23;;;;;;;8.10;6.47;;;;;;;;;;6277615;28;20048;-77
2022/08/25 08:22:26;;;;;;;10.10;7.05;;;;;;;;;;6276280;28;20182;-78
2022/08/25 08:25:28;;;;;;;8.27;6.50;;;;;;;;;;6287498;28;20051;-80
2022/08/25 08:28:30;;;;;;;8.15;6.90;;;;;;;;;;6302912;28;20048;-78
2022/08/25 08:31:31;;;;;;;8.10;6.55;;;;;;;;;;6289636;28;20087;-77
2022/08/25 08:34:34;;;;;;;8.00;6.88;;;;;;;;;;6297319;28;20041;-78
2022/08/25 08:37:40;;;;;;;8.73;6.93;;;;;;;;;;6278141;28;20110;-78
2022/08/25 08:42:15;;;;;;;8.00;6.72;;;;;;;;;;6274478;28;20127;-77
2022/08/25 08:44:45;;;;;;;7.93;6.25;;;;;;;;;;6263102;28;20182;-77
2022/08/25 08:48:17;;;;;;;9.35;6.22;;;;;;;;;;6278602;28;20543;-80
2022/08/25 08:51:25;;;;;;;8.10;5.97;;;;;;;;;;6281422;28;20041;-79
2022/08/25 08:54:38;;;;;;;6.30;5.57;;;;;;;;;;6273908;27;20044;-76
2022/08/25 08:57:45;;;;;;;6.57;5.78;;;;;;;;;;6275409;28;20499;-78
2022/08/25 09:00:57;;;;;;;7.43;5.88;;;;;;;;;;6275131;28;20032;-79
2022/08/25 09:04:07;;;;;;;6.65;5.95;;;;;;;;;;6291647;28;20044;-78
2022/08/25 09:07:17;;;;;;;7.90;6.07;;;;;;;;;;6275891;28;20045;-77
2022/08/25 09:10:23;;;;;;;6.75;6.05;;;;;;;;;;6274763;28;20041;-77
2022/08/25 09:13:43;;;;;;;7.95;6.32;;;;;;;;;;6279161;27;20110;-78
2022/08/25 09:16:59;;;;;;;6.90;5.55;;;;;;;;;;6276224;28;20100;-80
2022/08/25 09:20:12;;;;;;;7.85;5.93;;;;;;;;;;6281679;28;20072;-80
2022/08/25 09:24:04;;;;;;;6.40;5.72;;;;;;;;;;6278742;28;20056;-81
2022/08/25 09:27:30;;;;;;;7.75;6.22;;;;;;;;;;6247690;28;20178;-78
2022/08/25 09:30:43;;;;;;;7.97;6.75;;;;;;;;;;6282176;28;20045;-79
2022/08/25 09:33:45;;;;;;;8.90;6.63;;;;;;;;;;6282920;28;20052;-79
2022/08/25 09:36:51;;;;;;;6.57;5.97;;;;;;;;;;6273622;28;20071;-79
2022/08/25 09:39:53;;;;;;;7.15;6.45;;;;;;;;;;6272323;28;20156;-80
2022/08/25 09:43:04;;;;;;;7.57;6.80;;;;;;;;;;6276659;28;20056;-82
2022/08/25 09:46:22;;;;;;;8.65;6.53;;;;;;;;;;6284736;28;20052;-81
2022/08/25 09:49:34;;;;;;;8.00;6.30;;;;;;;;;;6286214;28;20048;-80
2022/08/25 09:52:38;;;;;;;8.98;7.00;;;;;;;;;;6281041;28;20815;-80
2022/08/25 09:55:45;;;;;;;7.20;6.50;;;;;;;;;;6281490;28;20400;-81
2022/08/25 09:58:47;;;;;;;7.13;6.43;;;;;;;;;;6282348;28;20102;-80
2022/08/25 10:01:50;;;;;;;;;;;;;;;;;;6280279;28;20048;-80
2022/08/25 10:04:53;;;;;;;7.78;5.93;;;;;;;;;;6277243;28;20705;-79
2022/08/25 10:07:58;;;;;;;9.40;6.70;;;;;;;;;;6276287;28;20056;-79
2022/08/25 10:11:07;;;;;;;9.13;6.70;;;;;;;;;;6274687;28;20180;-79
2022/08/25 10:14:17;;;;;;;7.57;6.60;;;;;;;;;;6281622;28;20044;-78
2022/08/25 10:17:29;;;;;;;9.13;6.40;;;;;;;;;;6277569;28;20083;-79
2022/08/25 10:20:34;;;;;;;8.90;6.07;;;;;;;;;;6276388;28;20419;-80
2022/08/25 10:23:48;;;;;;;7.13;6.28;;;;;;;;;;6271109;28;20210;-81
2022/08/25 10:26:57;;;;;;;8.50;6.72;;;;;;;;;;6271459;28;20060;-80
2022/08/25 10:30:18;;;;;;;7.47;6.47;;;;;;;;;;6285778;28;20048;-81
2022/08/25 10:33:28;;;;;;;9.07;6.82;;;;;;;;;;6287636;28;20068;-80
2022/08/25 10:36:43;;;;;;;8.25;6.88;;;;;;;;;;6280573;28;20056;-80
2022/08/25 10:40:01;;;;;;;6.93;6.22;;;;;;;;;;6277245;28;20055;-81
2022/08/25 10:43:16;;;;;;;9.02;6.78;;;;;;;;;;6286207;28;20109;-81
2022/08/25 10:46:26;;;;;;;9.30;6.85;;;;;;;;;;6278026;28;20064;-80
2022/08/25 10:49:45;;;;;;;7.40;6.68;;;;;;;;;;6276781;28;20037;-80
2022/08/25 10:53:00;;;;;;;6.80;6.10;;;;;;;;;;6283711;28;20052;-80
2022/08/25 10:56:23;;;;;;;7.05;6.30;;;;;;;;;;6281567;28;20073;-81
2022/08/25 10:59:49;;;;;;;7.75;6.22;;;;;;;;;;6277109;28;20129;-81
2022/08/25 11:03:12;;;;;;;10.43;7.03;;;;;;;;;;6276972;28;20048;-81
2022/08/25 11:06:25;;;;;;;8.05;6.50;;;;;;;;;;6283027;28;20122;-81
2022/08/25 11:09:32;;;;;;;8.23;6.53;;;;;;;;;;6278493;28;20044;-81
2022/08/25 11:12:53;;;;;;;6.55;5.95;;;;;;;;;;6278730;28;20056;-81
2022/08/25 11:16:01;;;;;;;9.68;6.80;;;;;;;;;;6276004;28;20048;-78
2022/08/25 11:19:23;;;;;;;10.35;7.00;;;;;;;;;;6280739;28;20047;-80
2022/08/25 11:22:34;;;;;;;10.57;7.28;;;;;;;;;;6279503;28;20044;-80
2022/08/25 11:25:41;;;;;;;9.07;7.20;;;;;;;;;;6277431;28;20037;-80
2022/08/25 11:29:11;;;;;;;7.38;6.57;;;;;;;;;;6295636;28;20395;-81
2022/08/25 11:32:14;;;;;;;8.45;6.35;;;;;;;;;;6273914;28;20060;-80
2022/08/25 11:35:19;;;;;;;7.28;6.43;;;;;;;;;;6276721;28;20059;-80
2022/08/25 11:38:40;;;;;;;7.60;6.75;;;;;;;;;;6278288;28;20052;-81
2022/08/25 11:41:57;;;;;;;10.95;7.28;;;;;;;;;;6276907;28;20506;-81
2022/08/25 11:45:11;;;;;;;11.60;7.40;;;;;;;;;;6278472;28;20125;-81
2022/08/25 11:48:30;;;;;;;7.22;6.57;;;;;;;;;;6288956;28;20510;-81
2022/08/25 11:51:42;;;;;;;6.85;6.07;;;;;;;;;;6280485;28;20069;-82
2022/08/25 11:54:47;;;;;;;7.78;6.20;;;;;;;;;;6282592;28;20041;-82
2022/08/25 11:57:51;;;;;;;11.88;6.68;;;;;;;;;;6282545;28;20056;-82
2022/08/25 12:00:57;;;;;;;8.07;6.65;;;;;;;;;;6286410;28;20048;-82
2022/08/25 12:04:35;;;;;;;9.45;7.05;;;;;;;;;;6289107;28;20830;-82
2022/08/25 12:07:45;;;;;;;8.93;6.93;;;;;;;;;;6286539;28;20182;-80
2022/08/25 12:11:00;;;;;;;7.45;6.63;;;;;;;;;;6282753;28;20047;-81
2022/08/25 12:14:30;;;;;;;8.73;7.20;;;;;;;;;;6285206;28;20094;-81
2022/08/25 12:17:38;;;;;;;8.38;6.88;;;;;;;;;;6285368;28;20506;-80
2022/08/25 12:20:52;;;;;;;7.57;6.78;;;;;;;;;;6290629;28;20047;-83
2022/08/25 12:24:08;;;;;;;8.45;7.13;;;;;;;;;;6278456;28;20076;-80
2022/08/25 12:27:25;;;;;;;9.07;6.68;;;;;;;;;;6279964;28;20052;-82
2022/08/25 12:30:42;;;;;;;8.50;6.80;;;;;;;;;;6284450;28;20491;-81
2022/08/25 12:34:15;;;;;;;7.68;6.70;;;;;;;;;;6298139;28;20114;-80
2022/08/25 12:37:20;;;;;;;9.75;7.32;;;;;;;;;;6284282;28;20060;-80
2022/08/25 12:40:31;;;;;;;8.82;7.10;;;;;;;;;;6278643;28;20548;-80
2022/08/25 12:43:39;;;;;;;8.88;7.15;;;;;;;;;;6283064;28;20037;-80
2022/08/25 12:46:43;;;;;;;10.52;6.60;;;;;;;;;;6279150;28;20147;-81
2022/08/25 12:49:45;;;;;;;8.65;6.35;;;;;;;;;;6283677;28;20441;-81
2022/08/25 12:52:51;;;;;;;7.90;6.60;;;;;;;;;;6277001;28;20049;-81
2022/08/25 12:56:08;;;;;;;7.60;6.22;;;;;;;;;;6276226;28;20283;-82
2022/08/25 12:59:20;;;;;;;8.05;6.55;;;;;;;;;;6281975;28;20064;-82
2022/08/25 13:02:51;;;;;;;8.00;6.67;;;;;;;;;;6282987;28;20080;-80
2022/08/25 13:06:12;;;;;;;8.48;6.85;;;;;;;;;;6262228;28;20538;-81
2022/08/25 13:09:22;;;;;;;;;;;;;;;;;;6279384;28;20048;-82
2022/08/25 13:12:33;;;;;;;10.07;6.60;;;;;;;;;;6276745;28;19932;-80
2022/08/25 13:15:40;;;;;;;8.57;6.80;;;;;;;;;;6285268;28;20099;-80
2022/08/25 13:18:45;;;;;;;7.30;6.47;;;;;;;;;;6286806;28;20533;-80
2022/08/25 13:21:54;;;;;;;6.65;5.93;;;;;;;;;;6286471;28;20044;-80
2022/08/25 13:24:56;;;;;;;6.95;6.22;;;;;;;;;;6284763;28;20048;-81
2022/08/25 13:28:04;;;;;;;7.68;6.70;;;;;;;;;;6286602;28;20044;-80
2022/08/25 13:31:14;;;;;;;7.43;6.72;;;;;;;;;;6282435;28;20040;-81
2022/08/25 13:34:18;;;;;;;10.00;5.95;;;;;;;;;;6290347;28;20044;-81
2022/08/25 13:37:31;;;;;;;9.48;6.32;;;;;;;;;;6285680;28;20072;-81
2022/08/25 13:40:35;;;;;;;8.43;6.40;;;;;;;;;;6281006;28;20045;-81
2022/08/25 13:43:38;;;;;;;8.75;6.28;;;;;;;;;;6285479;28;20060;-80
2022/08/25 13:46:42;;;;;;;7.28;6.57;;;;;;;;;;6285118;28;20109;-81
2022/08/25 13:49:46;;;;;;;8.65;5.72;;;;;;;;;;6287652;28;20094;-80
2022/08/25 13:52:54;;;;;;;6.25;5.65;;;;;;;;;;6290017;28;20045;-79
2022/08/25 13:55:58;;;;;;;6.50;5.90;;;;;;;;;;6279543;28;20095;-81
2022/08/25 13:59:02;;;;;;;6.88;5.75;;;;;;;;;;6291965;28;20055;-80
2022/08/25 14:02:05;;;;;;;6.38;5.78;;;;;;;;;;6283170;28;20845;-82
2022/08/25 14:05:09;;;;;;;6.45;5.72;;;;;;;;;;6283189;28;20121;-82
2022/08/25 14:08:39;;;;;;;7.30;5.50;;;;;;;;;;6277197;28;20044;-82
2022/08/25 14:11:55;;;;;;;6.32;5.70;;;;;;;;;;6287228;28;20052;-81
2022/08/25 14:15:09;;;;;;;6.28;5.68;;;;;;;;;;6280716;28;20044;-80
2022/08/25 14:18:19;;;;;;;7.28;5.85;;;;;;;;;;6285443;28;20057;-82
2022/08/25 14:21:29;;;;;;;5.93;5.32;;;;;;;;;;6286107;28;20403;-82
2022/08/25 14:24:34;;;;;;;6.55;5.93;;;;;;;;;;6284692;28;21241;-82
2022/08/25 14:27:43;;;;;;;6.30;5.50;;;;;;;;;;6280874;28;20653;-81
2022/08/25 14:31:08;;;;;;;7.55;5.35;;;;;;;;;;6279246;28;20041;-81
2022/08/25 14:34:27;;;;;;;6.00;5.40;;;;;;;;;;6282224;28;20090;-80
2022/08/25 14:37:30;;;;;;;6.07;5.45;;;;;;;;;;6278935;28;20091;-83
2022/08/25 14:40:34;;;;;;;6.47;5.70;;;;;;;;;;6280557;28;20157;-80
2022/08/25 14:43:36;;;;;;;5.93;5.40;;;;;;;;;;6284490;28;20055;-81
2022/08/25 14:46:56;;;;;;;6.10;5.50;;;;;;;;;;6282369;28;20049;-82
2022/08/25 14:50:00;;;;;;;7.20;5.70;;;;;;;;;;6281553;28;20068;-81
2022/08/25 14:53:02;;;;;;;7.28;5.65;;;;;;;;;;6288411;28;20652;-81
2022/08/25 14:56:05;;;;;;;6.13;5.53;;;;;;;;;;6279517;28;20043;-81
2022/08/25 14:59:10;;;;;;;5.72;5.10;;;;;;;;;;6284345;28;20047;-81
2022/08/25 15:02:17;;;;;;;5.97;5.38;;;;;;;;;;6285185;28;20087;-81
2022/08/25 15:05:25;;;;;;;5.95;5.35;;;;;;;;;;6281982;28;20073;-80
2022/08/25 15:11:53;;;;;;;6.07;5.47;;;;;;;;;;6286157;28;20048;-82
2022/08/25 15:14:55;;;;;;;5.75;4.97;;;;;;;;;;6283742;28;20399;-82
2022/08/25 15:17:57;;;;;;;6.10;5.50;;;;;;;;;;6303170;28;20184;-82
2022/08/25 15:21:01;;;;;;;7.45;5.35;;;;;;;;;;6287579;28;20048;-81
2022/08/25 15:24:04;;;;;;;5.82;5.22;;;;;;;;;;6287157;28;20044;-81
2022/08/25 15:27:07;;;;;;;5.93;5.28;;;;;;;;;;6286036;28;20060;-80
2022/08/25 15:30:11;;;;;;;5.93;5.28;;;;;;;;;;6290547;28;20041;-81
2022/08/25 15:33:13;;;;;;;5.90;4.93;;;;;;;;;;6276042;28;20633;-83
2022/08/25 15:36:17;;;;;;;6.68;5.38;;;;;;;;;;6288947;28;20057;-81
2022/08/25 15:39:21;;;;;;;5.75;4.82;;;;;;;;;;6293175;28;20060;-82
2022/08/25 15:42:24;;;;;;;6.00;5.40;;;;;;;;;;6285412;28;20446;-82
2022/08/25 15:45:26;;;;;;;6.80;5.13;;;;;;;;;;6304755;28;20082;-83
2022/08/25 15:48:28;;;;;;;5.25;4.75;;;;;;;;;;6292517;27;20068;-82
2022/08/25 15:51:30;;;;;;;5.55;4.93;;;;;;;;;;6294407;28;20047;-81
2022/08/25 15:54:32;;;;;;;;;;;;;;;;;;6293703;28;20052;-81
2022/08/25 15:57:33;;;;;;;5.22;4.72;;;;;;;;;;6291293;28;20370;-82
2022/08/25 16:00:40;;;;;;;6.65;5.03;;;;;;;;;;6268577;28;20508;-81
2022/08/25 16:03:42;;;;;;;5.25;4.75;;;;;;;;;;6289950;28;20036;-79
2022/08/25 16:06:44;;;;;;;9.68;5.20;;;;;;;;;;6287754;28;20049;-80
2022/08/25 16:09:48;;;;;;;5.53;4.80;;;;;;;;;;6285078;28;20049;-80
2022/08/25 16:12:51;;;;;;;7.07;4.80;;;;;;;;;;6279472;28;20049;-80
2022/08/25 16:15:53;;;;;;;6.63;4.85;;;;;;;;;;6274713;28;20127;-81
2022/08/25 16:18:56;;;;;;;6.35;4.45;;;;;;;;;;6288765;28;20059;-80
2022/08/25 16:21:59;;;;;;;5.00;4.57;;;;;;;;;;6286655;28;20503;-80
2022/08/25 16:25:01;;;;;;;5.40;4.18;;;;;;;;;;6283894;28;20606;-79
2022/08/25 16:28:03;;;;;;;5.30;4.80;;;;;;;;;;6281419;28;20082;-79
2022/08/25 16:31:08;;;;;;;4.97;4.47;;;;;;;;;;6286154;28;20111;-79
2022/08/25 16:34:10;;;;;;;6.28;4.38;;;;;;;;;;6282111;28;20048;-80
2022/08/25 16:37:12;;;;;;;5.10;4.60;;;;;;;;;;6282395;28;20441;-79
2022/08/25 16:40:15;;;;;;;5.72;4.60;;;;;;;;;;6286012;28;20045;-78
2022/08/25 16:43:17;;;;;;;5.28;4.72;;;;;;;;;;6287073;28;20048;-78
2022/08/25 16:46:20;;;;;;;7.20;4.60;;;;;;;;;;6286603;28;20082;-78
2022/08/25 16:49:24;;;;;;;5.07;4.45;;;;;;;;;;6284589;28;20048;-80
2022/08/25 16:55:46;;;;;;;6.57;4.50;;;;;;;;;;6284742;28;20045;-79
2022/08/25 16:58:48;;;;;;;5.72;4.85;;;;;;;;;;6284377;28;20127;-78
2022/08/25 17:01:53;;;;;;;5.40;4.68;;;;;;;;;;6285808;28;20636;-79
2022/08/25 17:04:55;;;;;;;5.30;4.40;;;;;;;;;;6278650;28;20141;-80
2022/08/25 17:11:28;;;;;;;6.55;4.20;;;;;;;;;;6283140;28;20689;-78
2022/08/25 17:14:29;;;;;;;5.35;4.70;;;;;;;;;;6270681;28;20060;-78
2022/08/25 17:17:34;;;;;;;5.38;4.88;;;;;;;;;;6272794;28;20065;-81
2022/08/25 17:20:37;;;;;;;5.13;4.50;;;;;;;;;;6266701;28;20483;-78
2022/08/25 17:23:42;;;;;;;4.95;4.45;;;;;;;;;;6278627;28;20483;-78
2022/08/25 17:26:48;;;;;;;6.00;4.55;;;;;;;;;;6278626;28;20362;-79
2022/08/25 17:29:50;;;;;;;8.93;4.85;;;;;;;;;;6276251;28;20106;-78
2022/08/25 17:32:52;;;;;;;7.00;4.93;;;;;;;;;;6277583;28;20048;-79
2022/08/25 17:35:55;;;;;;;4.60;4.18;;;;;;;;;;6277217;28;20098;-79
2022/08/25 17:38:57;;;;;;;6.07;4.55;;;;;;;;;;6272679;28;20037;-78
2022/08/25 17:41:58;;;;;;;6.15;4.80;;;;;;;;;;6274912;28;20040;-79
2022/08/25 17:45:01;;;;;;;5.82;4.63;;;;;;;;;;6285114;28;20413;-79
2022/08/25 17:48:06;;;;;;;4.88;4.38;;;;;;;;;;6284550;28;20049;-78
2022/08/25 17:51:09;;;;;;;6.10;4.32;;;;;;;;;;6285627;28;20071;-79
2022/08/25 17:54:12;;;;;;;6.50;4.70;;;;;;;;;;6276635;28;20055;-79
2022/08/25 17:57:14;;;;;;;4.95;4.22;;;;;;;;;;6280831;28;20061;-78
2022/08/25 18:00:19;;;;;;;5.53;4.63;;;;;;;;;;6287180;28;20060;-78
2022/08/25 18:03:21;;;;;;;6.47;4.80;;;;;;;;;;6280008;28;20052;-77
2022/08/25 18:06:24;;;;;;;5.22;4.53;;;;;;;;;;6281443;28;20304;-78
2022/08/25 18:09:28;;;;;;;6.68;4.75;;;;;;;;;;6271705;28;20048;-80
2022/08/25 18:12:29;;;;;;;4.75;4.35;;;;;;;;;;6276244;28;20043;-79
2022/08/25 18:15:32;;;;;;;5.78;4.40;;;;;;;;;;6283683;28;20051;-80
2022/08/25 18:18:35;;;;;;;7.15;4.72;;;;;;;;;;6283219;28;20103;-80
2022/08/25 18:21:38;;;;;;;5.40;4.68;;;;;;;;;;6285824;28;20067;-79
2022/08/25 18:24:39;;;;;;;7.25;4.13;;;;;;;;;;6275096;28;20711;-79
2022/08/25 18:27:41;;;;;;;8.45;4.78;;;;;;;;;;6283370;28;20051;-78
2022/08/25 18:30:43;;;;;;;8.63;4.50;;;;;;;;;;6274978;28;20065;-78
2022/08/25 18:33:45;;;;;;;6.20;4.72;;;;;;;;;;6275317;28;20056;-78
2022/08/25 18:36:47;;;;;;;7.93;4.73;;;;;;;;;;6281226;28;20094;-78
2022/08/25 18:43:14;;;;;;;6.07;4.67;;;;;;;;;;6283870;28;20056;-79
2022/08/25 18:46:16;;;;;;;7.90;5.10;;;;;;;;;;6284422;28;20106;-78
2022/08/25 18:49:23;;;;;;;6.65;5.15;;;;;;;;;;6282962;28;20463;-78
2022/08/25 18:52:29;;;;;;;6.57;4.47;;;;;;;;;;6285130;28;20036;-78
2022/08/25 18:55:31;;;;;;;7.28;4.85;;;;;;;;;;6274026;28;20135;-79